Aeroporto :
LOGIN :

Iscrizione | Disclaimer

   EN    FR    IT 

 










Sommario :    VFR   VFR Marginale   IFR   IFR Intensivo   IFR Molto Intensivo
Visibilità : 
Base nubi : 
>= 8 km
>= 3000ft
5 / 8 km
1000 / 3000 ft
1500m / 5 km
500 / 1000 ft
800 / 1500m
200 / 500 ft
< 800m
< 200 ft
Simboli :   Temporali  Nebbia  Neve Forte  Precipitazioni Forti  Vento > 20 kt
SIGMETs :   Varie  Temporali  Ghiacco  Turbolenza  Onda orograficha  Ceneri Vulcaniche






- Altitudine del aeroporto : 2096 ft
- Codice IATA : AUR


LFLW - Aurillac

ULTIMO METAR :
  • 211500Z AUTO 29006KT 230V330 9999 ////// 11/04 Q1029

METARs OBSOLETI :
  • 211430Z AUTO 30005KT 260V350 9999 ////// 11/04 Q1029
  • 211400Z AUTO 29005KT 250V350 9999 ////// 10/03 Q1029
  • 211330Z AUTO 31006KT 240V350 9999 ////// 11/04 Q1030
  • 211300Z AUTO 30006KT 260V340 9999 ////// 10/03 Q1030
  • 211230Z AUTO 26004KT 170V330 9999 ////// 10/03 Q1030

TAF TAF LFLW
Valido dal 21 a 12 ore il 21 a 21 ore UTC


211100Z 2112/2121 29005KT CAVOK
PROB30
TEMPO 2112/2117 SCT025



MetMap, La meteo Aeronautica in un colpo d'occhio ! - Copyright ORBIFLY Dicembre 2007 - Disclaimer

ORBIFLY MET'MAP TEAM :

Programmazione e sviluppo : Alexandra Zaïnal
Concezione : Baudouin d'Aumeries
Aiuto per la programmazione : Marc-Olivier Méhu
Supporto tecnico e logistico : Manuel Goepfert
Aiuto per la traduzione : Arnaldo La Scala

Contatto : metmap@orbifly.com




FONTI E CREDITI :

   NOAA